createdAt,value
2024-02-08T12:39:19.305Z,1.15
2024-02-08T12:44:16.544Z,0.30
2024-02-08T12:46:44.186Z,0.38
2024-02-08T12:49:11.625Z,0.30
2024-02-08T12:51:40.105Z,0.60
2024-02-08T12:54:15.722Z,0.47
2024-02-08T12:56:46.318Z,0.30
2024-02-08T12:59:13.696Z,0.40
2024-02-08T13:01:41.386Z,0.47
2024-02-08T13:04:09.002Z,0.35
2024-02-08T13:06:36.452Z,0.32
2024-02-08T13:09:18.239Z,0.30
2024-02-08T13:11:45.772Z,0.22
2024-02-08T13:14:15.500Z,0.10
2024-02-08T13:16:42.834Z,0.10
2024-02-08T13:19:15.272Z,0.00
2024-02-08T13:21:44.733Z,0.20
2024-02-08T13:24:12.068Z,0.25
2024-02-08T13:26:40.384Z,0.38
2024-02-08T13:29:07.781Z,0.00
2024-02-08T13:31:39.385Z,0.20
2024-02-08T13:34:06.991Z,0.10
2024-02-08T13:36:34.862Z,0.20
2024-02-08T13:39:02.193Z,0.00
2024-02-08T13:41:29.605Z,0.10
2024-02-08T13:43:57.675Z,0.10
2024-02-08T13:46:27.138Z,0.20
2024-02-08T13:48:55.907Z,0.20
2024-02-08T13:51:23.634Z,0.10
2024-02-08T13:53:51.320Z,0.40
2024-02-08T13:56:18.687Z,0.15
2024-02-08T13:58:49.722Z,0.25
2024-02-08T14:01:26.852Z,0.30
2024-02-08T14:04:00.442Z,0.30
2024-02-08T14:06:28.378Z,0.10
2024-02-08T14:09:16.055Z,0.20
2024-02-08T14:11:46.140Z,0.20
2024-02-08T14:14:14.630Z,0.25
2024-02-08T14:16:42.011Z,0.38
2024-02-08T14:19:12.820Z,0.30
2024-02-08T14:21:42.324Z,0.30
2024-02-08T14:24:13.188Z,0.22
2024-02-08T14:26:44.646Z,0.50
2024-02-08T14:29:14.359Z,0.40
2024-02-08T14:31:42.893Z,0.47
2024-02-08T14:34:12.511Z,0.30
2024-02-08T14:36:48.610Z,0.80
2024-02-08T14:39:34.249Z,0.60
2024-02-08T14:42:02.095Z,0.40
2024-02-08T14:44:43.319Z,0.60
2024-02-08T14:47:16.838Z,0.98
2024-02-08T14:49:57.709Z,0.50
2024-02-08T14:52:30.406Z,0.30
2024-02-08T14:55:00.559Z,0.30
2024-02-08T14:57:28.450Z,0.35
2024-02-08T15:00:15.699Z,0.40
2024-02-08T15:02:45.250Z,0.38
2024-02-08T15:05:13.443Z,0.35
2024-02-08T15:07:52.642Z,0.22
2024-02-08T15:10:23.109Z,0.38
2024-02-08T15:12:58.072Z,0.82
2024-02-08T15:15:35.121Z,0.43
2024-02-08T15:18:13.682Z,0.57
2024-02-08T15:20:47.414Z,0.68
2024-02-08T15:23:35.578Z,0.52
2024-02-08T15:26:04.779Z,0.88
2024-02-08T15:28:37.097Z,0.60
2024-02-08T15:31:23.388Z,0.52
2024-02-08T15:33:59.323Z,0.52
2024-02-08T15:36:45.832Z,1.00
2024-02-08T15:39:48.672Z,0.63
2024-02-08T15:42:21.458Z,0.77
2024-02-08T15:44:54.182Z,0.75
2024-02-08T15:47:22.327Z,0.70
2024-02-08T15:49:56.948Z,0.73
2024-02-08T15:52:27.266Z,0.65
2024-02-08T15:54:59.780Z,0.50
2024-02-08T15:57:31.054Z,0.28
2024-02-08T15:59:58.883Z,0.25
2024-02-08T16:02:26.480Z,0.43
2024-02-08T16:04:54.456Z,0.17
2024-02-08T16:07:29.399Z,0.10
2024-02-08T16:10:00.410Z,0.30
2024-02-08T16:12:38.170Z,0.08
2024-02-08T16:15:09.604Z,0.10
2024-02-08T16:17:38.243Z,0.30
2024-02-08T16:20:15.889Z,0.10
2024-02-08T16:22:53.725Z,0.20
2024-02-08T16:25:40.069Z,0.20
2024-02-08T16:28:17.936Z,0.10
2024-02-08T16:31:09.045Z,0.10
2024-02-08T16:33:46.208Z,0.82
2024-02-08T16:36:43.252Z,0.10
2024-02-08T16:39:13.603Z,0.30
2024-02-08T16:41:57.833Z,0.20
2024-02-08T16:44:46.413Z,0.20
2024-02-08T16:47:34.048Z,0.30
2024-02-08T16:50:08.609Z,0.35
2024-02-08T16:55:23.621Z,0.65
2024-02-08T16:58:02.396Z,0.30
2024-02-08T17:00:49.111Z,0.63
2024-02-08T17:03:38.551Z,0.40
2024-02-08T17:06:18.507Z,0.68
2024-02-08T17:09:01.931Z,0.40
2024-02-08T17:11:34.576Z,0.60
2024-02-08T17:14:02.207Z,0.68
2024-02-08T17:16:32.565Z,1.25
2024-02-08T17:19:19.006Z,0.93
2024-02-08T17:21:56.685Z,0.90
2024-02-08T17:24:31.364Z,1.88
2024-02-08T17:27:04.151Z,0.98
2024-02-08T17:29:45.953Z,0.93
2024-02-08T17:32:25.725Z,0.70
2024-02-08T17:34:53.461Z,0.65
2024-02-08T17:37:31.648Z,0.68
2024-02-08T17:39:59.407Z,0.98
2024-02-08T17:42:31.688Z,0.80
2024-02-08T17:45:02.292Z,0.38
2024-02-08T17:47:36.188Z,0.43
2024-02-08T17:50:06.130Z,0.50
2024-02-08T17:52:39.020Z,0.38
2024-02-08T17:55:06.782Z,0.82
2024-02-08T17:57:34.715Z,0.40
2024-02-08T18:00:02.520Z,0.82
2024-02-08T18:02:31.731Z,0.68
2024-02-08T18:05:10.337Z,0.60
2024-02-08T18:07:38.295Z,0.85
2024-02-08T18:10:19.076Z,0.77
2024-02-08T18:12:53.509Z,0.75
2024-02-08T18:17:57.482Z,0.80
2024-02-08T18:20:31.134Z,0.90
2024-02-08T18:23:03.662Z,0.97
2024-02-08T18:25:32.107Z,0.70
2024-02-08T18:28:07.235Z,2.33
2024-02-08T18:30:36.841Z,1.27
2024-02-08T18:33:05.248Z,1.40
2024-02-08T18:35:34.592Z,1.40
2024-02-08T18:38:06.356Z,1.75
2024-02-08T18:40:40.310Z,1.80
2024-02-08T18:43:08.122Z,1.45
2024-02-08T18:45:42.489Z,2.63
2024-02-08T18:48:12.819Z,1.92
2024-02-08T18:50:44.485Z,1.80
2024-02-08T18:53:14.168Z,2.08
2024-02-08T18:55:52.559Z,2.65
2024-02-08T18:58:20.756Z,1.50
2024-02-08T19:00:51.117Z,1.60
2024-02-08T19:03:21.950Z,1.55
2024-02-08T19:05:50.583Z,2.45
2024-02-08T19:08:21.540Z,1.98
2024-02-08T19:11:03.235Z,1.98
2024-02-08T19:13:31.799Z,1.55
2024-02-08T19:15:59.751Z,2.30
2024-02-08T19:18:28.249Z,1.98
2024-02-08T19:20:58.697Z,2.67
2024-02-08T19:23:26.102Z,1.45
2024-02-08T19:25:58.710Z,2.13
2024-02-08T19:28:26.757Z,1.60
2024-02-08T19:30:56.848Z,1.50
2024-02-08T19:33:27.510Z,1.83
2024-02-08T19:35:58.024Z,2.08
2024-02-08T19:38:28.401Z,2.83
2024-02-08T19:40:55.732Z,1.77
2024-02-08T19:43:27.520Z,1.55
2024-02-08T19:45:55.357Z,2.38
2024-02-08T19:48:26.733Z,1.58
2024-02-08T19:50:54.763Z,1.40
2024-02-08T19:53:29.913Z,1.98
2024-02-08T19:55:57.563Z,1.95
2024-02-08T19:58:27.922Z,1.90
2024-02-08T20:01:00.362Z,1.75
2024-02-08T20:03:28.274Z,2.00
2024-02-08T20:05:55.710Z,1.15
2024-02-08T20:08:24.277Z,1.60
2024-02-08T20:10:52.836Z,1.45
2024-02-08T20:13:25.659Z,1.58
2024-02-08T20:15:54.140Z,2.30
2024-02-08T20:18:22.317Z,1.65
2024-02-08T20:20:53.172Z,1.50
2024-02-08T20:23:20.771Z,1.70
2024-02-08T20:25:50.243Z,1.98
2024-02-08T20:28:17.716Z,1.55
2024-02-08T20:30:45.105Z,0.90
2024-02-08T20:33:15.023Z,1.10
2024-02-08T20:35:43.337Z,0.93
2024-02-08T20:38:13.090Z,1.67
2024-02-08T20:40:42.134Z,2.35
2024-02-08T20:43:11.966Z,1.50
2024-02-08T20:45:39.370Z,1.20
2024-02-08T20:48:09.688Z,1.75
2024-02-08T20:50:40.436Z,1.30
2024-02-08T20:53:09.493Z,1.55
2024-02-08T20:55:39.996Z,1.65
2024-02-08T20:58:13.806Z,1.10
2024-02-08T21:00:43.789Z,1.02
2024-02-08T21:03:12.623Z,1.42
2024-02-08T21:05:41.139Z,1.85
2024-02-08T21:08:09.176Z,1.20
2024-02-08T21:10:36.653Z,1.50
2024-02-08T21:13:04.111Z,1.58
2024-02-08T21:15:32.122Z,1.60
2024-02-08T21:18:04.220Z,1.90
2024-02-08T21:20:36.365Z,2.45
2024-02-08T21:23:06.447Z,1.50
2024-02-08T21:25:33.756Z,1.83
2024-02-08T21:28:07.128Z,1.30
2024-02-08T21:30:38.173Z,2.20
2024-02-08T21:33:09.154Z,1.20
2024-02-08T21:35:39.692Z,1.77
2024-02-08T21:38:07.089Z,1.23
2024-02-08T21:40:34.580Z,1.50
2024-02-08T21:43:05.823Z,1.63
2024-02-08T21:45:33.236Z,1.70
2024-02-08T21:48:00.514Z,1.98
2024-02-08T21:50:27.851Z,1.50
2024-02-08T21:52:55.179Z,1.83
2024-02-08T21:55:22.616Z,1.13
2024-02-08T21:57:49.861Z,1.08
2024-02-08T22:00:18.178Z,1.40
2024-02-08T22:02:47.233Z,1.25
2024-02-08T22:05:19.101Z,1.98
2024-02-08T22:07:49.795Z,0.93
2024-02-08T22:10:17.260Z,1.20
2024-02-08T22:12:47.739Z,1.15
2024-02-08T22:15:15.330Z,1.38
2024-02-08T22:17:42.823Z,1.17
2024-02-08T22:20:13.520Z,1.10
2024-02-08T22:22:41.870Z,0.80
2024-02-08T22:25:09.279Z,1.42
2024-02-08T22:27:36.613Z,1.30
2024-02-08T22:30:03.966Z,1.35
2024-02-08T22:32:31.275Z,1.65
2024-02-08T22:34:58.834Z,1.48
2024-02-08T22:37:26.829Z,1.15
2024-02-08T22:39:55.465Z,1.40
2024-02-08T22:42:24.413Z,1.73
2024-02-08T22:44:51.696Z,1.70
2024-02-08T22:47:19.749Z,1.48
2024-02-08T22:49:47.073Z,1.35
2024-02-08T22:52:14.486Z,2.30
2024-02-08T22:54:41.801Z,1.45
2024-02-08T22:57:09.052Z,2.17
2024-02-08T22:59:36.361Z,1.85
2024-02-08T23:02:08.171Z,1.75
2024-02-08T23:04:35.564Z,2.38
2024-02-08T23:07:04.470Z,1.90
2024-02-08T23:09:31.908Z,1.63
2024-02-08T23:11:59.600Z,2.80
2024-02-08T23:14:31.160Z,3.03
2024-02-08T23:16:58.575Z,2.40
2024-02-08T23:19:33.696Z,2.20
2024-02-08T23:22:05.545Z,2.92
2024-02-08T23:24:33.260Z,2.95
2024-02-08T23:27:02.229Z,2.25
2024-02-08T23:29:29.615Z,2.63
2024-02-08T23:31:56.998Z,2.53
2024-02-08T23:34:25.313Z,3.08
2024-02-08T23:36:56.077Z,2.63
2024-02-08T23:39:29.096Z,3.00
2024-02-08T23:41:59.912Z,2.42
2024-02-08T23:44:30.260Z,2.90
2024-02-08T23:46:57.775Z,2.28
2024-02-08T23:49:27.335Z,2.30
2024-02-08T23:51:57.648Z,2.95
2024-02-08T23:54:25.096Z,2.20
2024-02-08T23:56:56.231Z,2.50
2024-02-08T23:59:23.866Z,2.17
